首页
METAR-TAF:

METAR-TAF

机场 :

布尔戈斯, 西班牙

纬度: 42-22N, 经度: 003-38W, 海拔: 894米

当前天气观测

该预报发布于17分钟前的14:30 UTC
风速12节,风向东转东北
温度 34°C
湿度 26%
气压 1021 hPa
能见度10公里或以上
少量云层高于4000英尺

METAR: LEBG 221430Z 06012KT 9999 FEW040 34/12 Q1021

时间: 16:47 (14:47 UTC)

预报

该预报发布于47分钟前的14:00 UTC
预报有效从22日的 15点(UTC)到 22日的 24点(UTC)
风速10节,风向
能见度10公里或以上
1500米以下无云,无积雨云
几率 40% :
短暂存在
从 22日的 15点(UTC)到 22日的 24点(UTC)
少量云层高于4000英尺, 塔状积云.

TAF: LEBG 221400Z 2215/2224 08010KT CAVOK PROB40 TEMPO 2215/2224 FEW040TCU

超过4000个机场的气象观测和天气预报(METAR&TAF报告)。

可查询的气象台以黄色和红色小点在地图上表示。

将鼠标移到小点上方,可查看气象台名称。

然后点击查看天气观测和预报。

如需切换地图:点击带黑十字的绿色按钮放大地图;点击带横线的绿色按钮缩小地图;或者点击绿色箭头查看邻近地区的地图。


METAR-TAF: